createdAt,value
2023-01-10T00:02:12.492Z,1.58
2023-01-10T00:04:38.738Z,1.67
2023-01-10T00:07:04.945Z,1.92
2023-01-10T00:09:31.135Z,1.85
2023-01-10T00:11:57.327Z,1.90
2023-01-10T00:14:23.517Z,1.73
2023-01-10T00:16:49.740Z,1.60
2023-01-10T00:19:15.939Z,1.40
2023-01-10T00:21:42.173Z,1.67
2023-01-10T00:24:08.366Z,1.38
2023-01-10T00:26:34.535Z,1.58
2023-01-10T00:29:00.679Z,1.67
2023-01-10T00:31:26.964Z,1.73
2023-01-10T00:33:53.178Z,1.70
2023-01-10T00:36:19.319Z,1.38
2023-01-10T00:38:45.491Z,1.60
2023-01-10T00:41:11.643Z,1.70
2023-01-10T00:43:37.866Z,1.20
2023-01-10T00:46:04.063Z,1.40
2023-01-10T00:48:30.260Z,1.50
2023-01-10T00:50:56.416Z,1.10
2023-01-10T00:53:22.573Z,1.33
2023-01-10T00:55:48.816Z,1.10
2023-01-10T00:58:15.008Z,1.27
2023-01-10T01:00:41.178Z,1.85
2023-01-10T01:03:07.314Z,1.23
2023-01-10T01:05:33.583Z,1.40
2023-01-10T01:07:59.744Z,1.42
2023-01-10T01:10:25.972Z,1.30
2023-01-10T01:12:52.193Z,1.00
2023-01-10T01:15:18.371Z,0.80
2023-01-10T01:17:44.635Z,0.60
2023-01-10T01:20:10.861Z,0.77
2023-01-10T01:22:37.012Z,0.70
2023-01-10T01:25:03.210Z,0.70
2023-01-10T01:27:29.360Z,0.75
2023-01-10T01:29:55.708Z,0.75
2023-01-10T01:32:21.907Z,0.50
2023-01-10T01:34:48.229Z,0.70
2023-01-10T01:37:14.438Z,1.02
2023-01-10T01:39:40.619Z,0.95
2023-01-10T01:42:06.777Z,0.70
2023-01-10T01:44:33.047Z,0.75
2023-01-10T01:46:59.218Z,0.90
2023-01-10T01:49:25.427Z,1.15
2023-01-10T01:51:51.568Z,0.50
2023-01-10T01:54:17.738Z,1.20
2023-01-10T01:56:43.886Z,0.95
2023-01-10T01:59:10.068Z,0.70
2023-01-10T02:01:36.322Z,1.02
2023-01-10T02:04:02.507Z,0.50
2023-01-10T02:06:28.665Z,0.65
2023-01-10T02:08:54.868Z,0.85
2023-01-10T02:11:21.043Z,0.68
2023-01-10T02:13:47.243Z,0.77
2023-01-10T02:16:13.415Z,0.70
2023-01-10T02:18:39.669Z,0.85
2023-01-10T02:21:05.853Z,0.50
2023-01-10T02:23:32.012Z,0.65
2023-01-10T02:25:58.209Z,0.73
2023-01-10T02:28:24.407Z,0.82
2023-01-10T02:30:50.581Z,1.27
2023-01-10T02:33:16.744Z,0.70
2023-01-10T02:35:42.922Z,0.90
2023-01-10T02:38:09.089Z,1.35
2023-01-10T02:40:35.322Z,0.98
2023-01-10T02:43:01.483Z,1.15
2023-01-10T02:45:27.647Z,1.25
2023-01-10T02:47:53.814Z,1.00
2023-01-10T02:50:20.038Z,1.02
2023-01-10T02:52:46.251Z,1.10
2023-01-10T02:55:12.410Z,1.25
2023-01-10T02:57:38.617Z,1.10
2023-01-10T03:00:04.831Z,1.00
2023-01-10T03:02:31.023Z,0.90
2023-01-10T03:04:57.295Z,1.30
2023-01-10T03:07:23.564Z,1.08
2023-01-10T03:09:49.786Z,1.10
2023-01-10T03:12:16.012Z,1.20
2023-01-10T03:14:42.219Z,1.00
2023-01-10T03:17:08.504Z,1.23
2023-01-10T03:19:34.648Z,1.50
2023-01-10T03:22:01.119Z,1.15
2023-01-10T03:24:27.309Z,1.02
2023-01-10T03:26:53.472Z,1.20
2023-01-10T03:29:19.710Z,0.98
2023-01-10T03:31:45.955Z,1.10
2023-01-10T03:34:12.169Z,0.73
2023-01-10T03:36:38.387Z,1.48
2023-01-10T03:39:04.556Z,1.10
2023-01-10T03:41:30.713Z,1.45
2023-01-10T03:43:56.856Z,1.00
2023-01-10T03:46:23.016Z,1.27
2023-01-10T03:48:49.177Z,1.45
2023-01-10T03:51:15.368Z,1.27
2023-01-10T03:53:41.508Z,1.10
2023-01-10T03:56:07.700Z,1.10
2023-01-10T03:58:33.823Z,0.93
2023-01-10T04:01:00.170Z,1.20
2023-01-10T04:03:26.469Z,1.27
2023-01-10T04:05:52.584Z,0.85
2023-01-10T04:08:18.785Z,1.20
2023-01-10T04:10:44.987Z,1.50
2023-01-10T04:13:11.171Z,1.88
2023-01-10T04:15:37.384Z,1.15
2023-01-10T04:18:03.555Z,1.20
2023-01-10T04:20:29.725Z,1.92
2023-01-10T04:22:55.860Z,1.52
2023-01-10T04:25:22.068Z,1.60
2023-01-10T04:27:48.217Z,1.60
2023-01-10T04:30:14.410Z,1.67
2023-01-10T04:32:40.559Z,1.23
2023-01-10T04:35:06.748Z,1.60
2023-01-10T04:37:32.909Z,1.42
2023-01-10T04:39:59.100Z,1.55
2023-01-10T04:42:25.290Z,1.73
2023-01-10T04:44:51.448Z,1.20
2023-01-10T04:47:17.675Z,2.10
2023-01-10T04:49:43.848Z,1.85
2023-01-10T04:52:10.033Z,1.40
2023-01-10T04:54:36.244Z,1.80
2023-01-10T04:57:02.487Z,1.52
2023-01-10T04:59:28.703Z,2.13
2023-01-10T05:01:54.985Z,1.58
2023-01-10T05:04:21.186Z,1.75
2023-01-10T05:06:47.411Z,1.40
2023-01-10T05:09:13.600Z,1.92
2023-01-10T05:11:39.808Z,1.50
2023-01-10T05:14:06.030Z,1.73
2023-01-10T05:16:32.267Z,1.90
2023-01-10T05:18:58.437Z,1.77
2023-01-10T05:21:24.666Z,1.70
2023-01-10T05:23:50.924Z,2.42
2023-01-10T05:26:17.406Z,2.00
2023-01-10T05:28:43.690Z,2.40
2023-01-10T05:31:09.921Z,2.50
2023-01-10T05:33:36.075Z,1.92
2023-01-10T05:36:02.269Z,2.15
2023-01-10T05:38:28.501Z,1.75
2023-01-10T05:40:54.686Z,2.13
2023-01-10T05:43:20.911Z,2.10
2023-01-10T05:45:47.107Z,2.28
2023-01-10T05:48:13.316Z,2.05
2023-01-10T05:50:39.461Z,2.28
2023-01-10T05:53:05.705Z,1.92
2023-01-10T05:55:31.969Z,2.28
2023-01-10T05:57:58.388Z,2.75
2023-01-10T06:00:25.194Z,2.17
2023-01-10T06:02:51.545Z,2.38
2023-01-10T06:05:17.772Z,2.53
2023-01-10T06:07:43.965Z,2.05
2023-01-10T06:10:10.184Z,2.45
2023-01-10T06:12:36.387Z,2.10
2023-01-10T06:15:02.595Z,2.70
2023-01-10T06:17:28.805Z,2.55
2023-01-10T06:19:55.007Z,2.50
2023-01-10T06:22:21.180Z,2.28
2023-01-10T06:24:47.339Z,2.40
2023-01-10T06:27:13.474Z,2.50
2023-01-10T06:29:39.664Z,2.13
2023-01-10T06:32:05.821Z,2.30
2023-01-10T06:34:32.049Z,2.38
2023-01-10T06:36:58.223Z,2.42
2023-01-10T06:39:24.420Z,2.20
2023-01-10T06:41:50.560Z,2.60
2023-01-10T06:44:16.782Z,1.80
2023-01-10T06:46:42.975Z,2.80
2023-01-10T06:49:09.364Z,2.10
2023-01-10T06:51:35.512Z,3.20
2023-01-10T06:54:01.741Z,2.03
2023-01-10T06:56:27.948Z,3.15
2023-01-10T06:58:54.189Z,2.08
2023-01-10T07:01:20.453Z,2.92
2023-01-10T07:03:46.788Z,2.00
2023-01-10T07:06:13.040Z,2.60
2023-01-10T07:08:39.412Z,2.33
2023-01-10T07:11:05.593Z,1.77
2023-01-10T07:13:31.751Z,2.00
2023-01-10T07:15:57.956Z,2.25
2023-01-10T07:18:24.140Z,2.28
2023-01-10T07:20:50.336Z,2.67
2023-01-10T07:23:17.210Z,2.05
2023-01-10T07:25:50.810Z,1.45
2023-01-10T07:28:16.985Z,2.25
2023-01-10T07:30:43.152Z,2.50
2023-01-10T07:33:09.323Z,1.65
2023-01-10T07:35:35.522Z,2.53
2023-01-10T07:38:01.664Z,1.75
2023-01-10T07:40:27.896Z,1.83
2023-01-10T07:42:54.043Z,2.92
2023-01-10T07:45:20.188Z,2.28
2023-01-10T07:47:46.388Z,1.63
2023-01-10T07:50:12.594Z,2.22
2023-01-10T07:52:38.814Z,1.60
2023-01-10T07:55:05.049Z,2.35
2023-01-10T07:57:31.213Z,4.63
2023-01-10T07:59:57.501Z,2.70
2023-01-10T08:02:23.768Z,2.25
2023-01-10T08:04:50.014Z,2.85
2023-01-10T08:07:16.195Z,1.85
2023-01-10T08:09:42.736Z,1.75
2023-01-10T08:12:08.972Z,2.83
2023-01-10T08:14:35.209Z,2.03
2023-01-10T08:17:01.423Z,2.00
2023-01-10T08:19:27.650Z,1.92
2023-01-10T08:21:53.871Z,2.78
2023-01-10T08:24:20.080Z,1.90
2023-01-10T08:26:46.295Z,2.20
2023-01-10T08:29:12.476Z,2.75
2023-01-10T08:31:38.767Z,2.08
2023-01-10T08:34:04.932Z,2.40
2023-01-10T08:36:31.109Z,2.47
2023-01-10T08:38:57.283Z,1.90
2023-01-10T08:41:23.451Z,2.03
2023-01-10T08:43:49.668Z,2.33
2023-01-10T08:46:15.896Z,2.85
2023-01-10T08:48:42.215Z,2.38
2023-01-10T08:51:08.460Z,1.88
2023-01-10T08:53:34.681Z,2.63
2023-01-10T08:56:00.862Z,3.13
2023-01-10T08:58:27.073Z,2.30
2023-01-10T09:00:53.278Z,2.72
2023-01-10T09:03:19.617Z,2.65
2023-01-10T09:05:45.841Z,2.20
2023-01-10T09:08:12.012Z,2.50
2023-01-10T09:10:38.240Z,2.25
2023-01-10T09:13:04.427Z,2.88
2023-01-10T09:15:30.631Z,2.85
2023-01-10T09:17:56.832Z,2.83
2023-01-10T09:20:22.973Z,2.83
2023-01-10T09:22:49.121Z,2.00
2023-01-10T09:25:15.373Z,2.13
2023-01-10T09:27:41.621Z,2.20
2023-01-10T09:30:07.789Z,1.92
2023-01-10T09:32:34.007Z,2.00
2023-01-10T09:35:00.196Z,2.17
2023-01-10T09:37:26.383Z,1.77
2023-01-10T09:39:52.604Z,2.33
2023-01-10T09:42:18.801Z,2.63
2023-01-10T09:44:44.929Z,2.35
2023-01-10T09:47:21.767Z,2.83
2023-01-10T09:49:48.821Z,2.55
2023-01-10T09:52:14.990Z,2.47
2023-01-10T09:54:41.172Z,3.58
2023-01-10T09:57:07.299Z,2.83
2023-01-10T09:59:33.561Z,2.33
2023-01-10T10:01:59.742Z,2.50
2023-01-10T10:04:26.028Z,3.20
2023-01-10T10:06:52.327Z,2.55
2023-01-10T10:09:18.568Z,2.38
2023-01-10T10:11:44.786Z,1.98
2023-01-10T10:14:10.966Z,2.67
2023-01-10T10:16:37.135Z,2.20
2023-01-10T10:19:03.348Z,2.55
2023-01-10T10:21:29.519Z,2.15
2023-01-10T10:23:55.745Z,3.38
2023-01-10T10:26:21.907Z,2.40
2023-01-10T10:28:54.719Z,2.63
2023-01-10T10:31:21.584Z,3.65
2023-01-10T10:33:48.946Z,2.40
2023-01-10T10:36:15.229Z,3.00
2023-01-10T10:38:41.455Z,3.58
2023-01-10T10:41:07.663Z,3.22
2023-01-10T10:43:33.884Z,2.75
2023-01-10T10:46:00.164Z,3.95
2023-01-10T10:48:26.398Z,3.03
2023-01-10T10:50:52.687Z,2.42
2023-01-10T10:53:18.837Z,2.63
2023-01-10T10:55:45.030Z,3.08
2023-01-10T10:58:11.280Z,3.53
2023-01-10T11:00:37.524Z,2.63
2023-01-10T11:03:03.798Z,3.30
2023-01-10T11:05:29.942Z,2.35
2023-01-10T11:07:56.151Z,3.20
2023-01-10T11:10:22.298Z,2.92
2023-01-10T11:12:48.437Z,3.25
2023-01-10T11:15:14.585Z,3.35
2023-01-10T11:17:40.767Z,2.58
2023-01-10T11:20:06.939Z,3.00
2023-01-10T11:22:33.069Z,3.25
2023-01-10T11:24:59.302Z,4.25
2023-01-10T11:27:25.471Z,2.78
2023-01-10T11:29:51.701Z,2.80
2023-01-10T11:32:17.885Z,2.85
2023-01-10T11:34:44.125Z,2.53
2023-01-10T11:37:10.384Z,4.40
2023-01-10T11:39:36.603Z,2.88
2023-01-10T11:42:02.803Z,3.58
2023-01-10T11:44:29.066Z,2.85
2023-01-10T11:46:55.231Z,2.45
2023-01-10T11:49:21.522Z,2.30
2023-01-10T11:51:47.788Z,3.42
2023-01-10T11:54:13.947Z,3.05
2023-01-10T11:56:40.144Z,3.38
2023-01-10T11:59:06.349Z,2.38
2023-01-10T12:01:32.577Z,2.13
2023-01-10T12:03:58.841Z,3.15
2023-01-10T12:06:25.115Z,3.63
2023-01-10T12:08:51.399Z,3.50
2023-01-10T12:11:17.580Z,2.72
2023-01-10T12:13:43.738Z,2.25
2023-01-10T12:16:09.948Z,2.45
2023-01-10T12:18:36.107Z,2.65
2023-01-10T12:21:02.336Z,2.28
2023-01-10T12:23:28.486Z,2.40
2023-01-10T12:26:07.130Z,2.00
2023-01-10T12:28:37.492Z,1.85
2023-01-10T12:31:03.718Z,3.92
2023-01-10T12:33:29.955Z,2.08
2023-01-10T12:35:56.155Z,2.80
2023-01-10T12:38:22.337Z,1.73
2023-01-10T12:40:48.664Z,3.15
2023-01-10T12:43:14.946Z,2.05
2023-01-10T12:45:41.160Z,3.33
2023-01-10T12:48:09.283Z,2.58
2023-01-10T12:50:35.493Z,1.63
2023-01-10T12:53:01.807Z,2.03
2023-01-10T12:55:28.031Z,3.25
2023-01-10T12:57:54.529Z,2.42
2023-01-10T13:00:20.803Z,2.17
2023-01-10T13:02:47.176Z,2.10
2023-01-10T13:05:13.577Z,2.03
2023-01-10T13:07:39.789Z,2.55
2023-01-10T13:10:07.032Z,2.97
2023-01-10T13:12:34.635Z,1.67
2023-01-10T13:15:00.826Z,1.90
2023-01-10T13:17:27.024Z,2.45
2023-01-10T13:19:53.386Z,2.65
2023-01-10T13:22:19.584Z,1.90
2023-01-10T13:24:45.861Z,1.40
2023-01-10T13:27:12.057Z,1.63
2023-01-10T13:29:39.790Z,2.33
2023-01-10T13:32:06.034Z,2.30
2023-01-10T13:34:32.212Z,2.10
2023-01-10T13:36:58.419Z,1.83
2023-01-10T13:39:24.647Z,1.70
2023-01-10T13:41:50.849Z,1.75
2023-01-10T13:44:17.065Z,2.97
2023-01-10T13:46:43.258Z,1.88
2023-01-10T13:49:09.447Z,1.50
2023-01-10T13:51:35.669Z,2.65
2023-01-10T13:54:01.876Z,2.40
2023-01-10T13:56:28.089Z,1.65
2023-01-10T13:58:54.251Z,1.52
2023-01-10T14:01:20.613Z,2.60
2023-01-10T14:03:48.407Z,1.45
2023-01-10T14:06:16.518Z,1.90
2023-01-10T14:08:42.783Z,2.20
2023-01-10T14:11:10.138Z,1.67
2023-01-10T14:13:36.670Z,1.52
2023-01-10T14:16:04.966Z,1.98
2023-01-10T14:18:31.248Z,2.05
2023-01-10T14:20:57.443Z,2.50
2023-01-10T14:23:23.647Z,2.00
2023-01-10T14:25:49.843Z,2.30
2023-01-10T14:28:16.042Z,1.83
2023-01-10T14:30:42.170Z,1.88
2023-01-10T14:33:08.345Z,1.60
2023-01-10T14:35:34.524Z,1.77
2023-01-10T14:38:00.702Z,2.63
2023-01-10T14:40:26.931Z,2.28
2023-01-10T14:42:53.170Z,1.73
2023-01-10T14:45:19.339Z,2.00
2023-01-10T14:47:45.519Z,2.13
2023-01-10T14:50:11.768Z,2.08
2023-01-10T14:52:37.931Z,1.85
2023-01-10T14:55:04.362Z,1.67
2023-01-10T14:57:30.595Z,1.90
2023-01-10T14:59:56.780Z,1.90
2023-01-10T15:02:23.055Z,1.80
2023-01-10T15:04:49.456Z,1.48
2023-01-10T15:07:15.702Z,1.40
2023-01-10T15:09:41.953Z,1.85
2023-01-10T15:12:08.185Z,1.73
2023-01-10T15:14:34.441Z,1.70
2023-01-10T15:17:00.740Z,1.85
2023-01-10T15:19:26.908Z,1.70
2023-01-10T15:21:53.084Z,2.42
2023-01-10T15:24:19.380Z,1.90
2023-01-10T15:26:45.614Z,1.40
2023-01-10T15:29:11.792Z,2.05
2023-01-10T15:31:38.125Z,1.98
2023-01-10T15:34:04.406Z,2.30
2023-01-10T15:36:30.586Z,2.17
2023-01-10T15:38:56.761Z,1.75
2023-01-10T15:41:22.955Z,1.55
2023-01-10T15:43:49.209Z,2.22
2023-01-10T15:46:15.382Z,1.75
2023-01-10T15:48:41.628Z,1.80
2023-01-10T15:51:07.806Z,2.20
2023-01-10T15:53:34.009Z,2.40
2023-01-10T15:56:00.223Z,1.67
2023-01-10T15:58:29.127Z,1.70
2023-01-10T16:00:55.363Z,2.00
2023-01-10T16:03:21.767Z,2.75
2023-01-10T16:05:47.966Z,2.25
2023-01-10T16:08:14.186Z,2.08
2023-01-10T16:10:46.350Z,1.67
2023-01-10T16:16:03.619Z,1.67
2023-01-10T16:18:32.698Z,1.90
2023-01-10T16:20:58.911Z,2.63
2023-01-10T16:23:25.258Z,1.70
2023-01-10T16:25:54.460Z,1.70
2023-01-10T16:28:22.593Z,1.88
2023-01-10T16:30:48.823Z,2.10
2023-01-10T16:33:17.773Z,2.72
2023-01-10T16:35:46.830Z,2.72
2023-01-10T16:38:16.625Z,1.92
2023-01-10T16:40:42.823Z,2.80
2023-01-10T16:43:09.287Z,1.63
2023-01-10T16:45:35.511Z,1.80
2023-01-10T16:48:03.518Z,1.70
2023-01-10T16:50:29.744Z,2.40
2023-01-10T16:52:55.925Z,1.58
2023-01-10T16:55:22.064Z,1.80
2023-01-10T16:57:48.338Z,1.70
2023-01-10T17:00:14.612Z,1.85
2023-01-10T17:05:26.482Z,1.13
2023-01-10T17:07:55.379Z,1.83
2023-01-10T17:10:21.577Z,1.80
2023-01-10T17:15:31.988Z,1.80
2023-01-10T17:17:58.975Z,1.58
2023-01-10T17:20:25.518Z,1.58
2023-01-10T17:22:51.795Z,1.80
2023-01-10T17:25:18.492Z,1.30
2023-01-10T17:27:47.731Z,1.98
2023-01-10T17:30:13.942Z,1.58
2023-01-10T17:35:30.530Z,1.60
2023-01-10T17:37:56.746Z,1.60
2023-01-10T17:40:22.920Z,1.65
2023-01-10T17:42:50.400Z,1.52
2023-01-10T17:45:16.586Z,1.42
2023-01-10T17:47:43.010Z,1.20
2023-01-10T17:50:09.205Z,1.40
2023-01-10T17:52:36.077Z,1.60
2023-01-10T17:55:02.297Z,2.17
2023-01-10T17:57:28.533Z,1.63
2023-01-10T17:59:54.771Z,1.42
2023-01-10T18:02:21.437Z,1.25
2023-01-10T18:04:48.088Z,1.60
2023-01-10T18:07:14.287Z,2.03
2023-01-10T18:09:40.576Z,1.52
2023-01-10T18:12:06.969Z,1.55
2023-01-10T18:14:33.193Z,2.55
2023-01-10T18:16:59.613Z,1.35
2023-01-10T18:19:25.850Z,1.60
2023-01-10T18:21:53.091Z,2.00
2023-01-10T18:24:19.403Z,1.42
2023-01-10T18:26:45.668Z,1.73
2023-01-10T18:29:12.887Z,1.45
2023-01-10T18:31:39.182Z,1.52
2023-01-10T18:34:07.858Z,2.05
2023-01-10T18:36:34.060Z,2.20
2023-01-10T18:39:00.268Z,2.38
2023-01-10T18:41:26.506Z,1.48
2023-01-10T18:43:52.842Z,1.70
2023-01-10T18:46:19.113Z,1.40
2023-01-10T18:48:45.401Z,1.60
2023-01-10T18:51:14.388Z,1.40
2023-01-10T18:53:40.640Z,1.20
2023-01-10T18:56:06.930Z,1.67
2023-01-10T18:58:33.128Z,2.15
2023-01-10T19:00:59.359Z,1.75
2023-01-10T19:03:25.581Z,2.15
2023-01-10T19:05:51.926Z,2.15
2023-01-10T19:08:18.508Z,1.77
2023-01-10T19:11:07.459Z,1.50
2023-01-10T19:13:31.015Z,1.75
2023-01-10T19:15:57.253Z,1.95
2023-01-10T19:18:23.448Z,2.00
2023-01-10T19:20:50.635Z,2.28
2023-01-10T19:23:16.875Z,1.92
2023-01-10T19:25:43.048Z,2.63
2023-01-10T19:28:09.255Z,2.13
2023-01-10T19:30:35.422Z,1.65
2023-01-10T19:33:01.759Z,1.98
2023-01-10T19:35:27.979Z,2.10
2023-01-10T19:37:54.194Z,1.90
2023-01-10T19:40:22.043Z,2.78
2023-01-10T19:42:48.261Z,1.70
2023-01-10T19:45:14.488Z,2.13
2023-01-10T19:47:40.726Z,2.10
2023-01-10T19:50:07.061Z,2.03
2023-01-10T19:52:33.891Z,2.15
2023-01-10T19:55:00.355Z,2.55
2023-01-10T19:57:26.671Z,1.80
2023-01-10T19:59:52.900Z,2.22
2023-01-10T20:02:19.246Z,1.98
2023-01-10T20:04:45.576Z,2.03
2023-01-10T20:07:11.876Z,2.33
2023-01-10T20:09:43.443Z,2.65
2023-01-10T20:12:09.647Z,2.40
2023-01-10T20:14:35.885Z,2.50
2023-01-10T20:17:02.107Z,1.92
2023-01-10T20:19:28.310Z,2.15
2023-01-10T20:21:54.484Z,2.60
2023-01-10T20:24:20.720Z,2.03
2023-01-10T20:26:47.388Z,3.80
2023-01-10T20:29:13.640Z,2.60
2023-01-10T20:31:39.950Z,2.33
2023-01-10T20:34:06.240Z,2.60
2023-01-10T20:36:32.653Z,2.95
2023-01-10T20:38:58.867Z,2.75
2023-01-10T20:41:25.072Z,2.38
2023-01-10T20:43:51.500Z,1.70
2023-01-10T20:46:18.026Z,1.92
2023-01-10T20:48:44.415Z,1.92
2023-01-10T20:51:15.147Z,2.00
2023-01-10T20:53:41.391Z,1.93
2023-01-10T20:56:11.707Z,2.15
2023-01-10T20:58:37.992Z,1.98
2023-01-10T21:01:04.176Z,1.80
2023-01-10T21:03:30.355Z,1.77
2023-01-10T21:05:56.582Z,2.25
2023-01-10T21:08:22.778Z,1.98
2023-01-10T21:10:48.979Z,2.10
2023-01-10T21:13:15.211Z,2.10
2023-01-10T21:15:41.459Z,1.90
2023-01-10T21:18:09.691Z,2.03
2023-01-10T21:20:36.031Z,2.20
2023-01-10T21:23:02.259Z,1.75
2023-01-10T21:25:29.734Z,1.63
2023-01-10T21:27:55.925Z,2.20
2023-01-10T21:33:12.318Z,1.80
2023-01-10T21:35:38.498Z,1.83
2023-01-10T21:38:04.679Z,1.83
2023-01-10T21:40:30.893Z,1.90
2023-01-10T21:42:57.077Z,2.33
2023-01-10T21:45:23.278Z,2.42
2023-01-10T21:47:49.451Z,2.17
2023-01-10T21:50:15.728Z,1.10
2023-01-10T21:52:41.923Z,1.42
2023-01-10T21:55:08.133Z,1.20
2023-01-10T21:57:34.274Z,1.48
2023-01-10T22:00:00.436Z,1.23
2023-01-10T22:02:26.684Z,1.70
2023-01-10T22:04:52.909Z,1.23
2023-01-10T22:07:20.322Z,1.10
2023-01-10T22:09:46.473Z,1.25
2023-01-10T22:12:12.711Z,1.00
2023-01-10T22:14:38.893Z,1.50
2023-01-10T22:17:05.077Z,0.95
2023-01-10T22:19:31.270Z,1.02
2023-01-10T22:21:57.470Z,2.33
2023-01-10T22:24:23.633Z,1.13
2023-01-10T22:26:49.852Z,1.10
2023-01-10T22:29:16.024Z,0.95
2023-01-10T22:31:42.284Z,1.08
2023-01-10T22:34:08.521Z,1.65
2023-01-10T22:36:34.710Z,1.10
2023-01-10T22:39:00.976Z,1.70
2023-01-10T22:41:27.143Z,1.27
2023-01-10T22:43:53.321Z,1.45
2023-01-10T22:46:19.508Z,1.60
2023-01-10T22:48:45.878Z,1.20
2023-01-10T22:51:12.095Z,1.42
2023-01-10T22:53:38.527Z,1.48
2023-01-10T22:56:04.738Z,1.25
2023-01-10T22:58:31.007Z,1.15
2023-01-10T23:00:57.164Z,0.88
2023-01-10T23:03:23.361Z,1.15
2023-01-10T23:05:49.693Z,1.40
2023-01-10T23:08:16.035Z,1.55
2023-01-10T23:10:42.231Z,1.30
2023-01-10T23:13:08.464Z,1.60
2023-01-10T23:15:34.704Z,1.48
2023-01-10T23:18:00.885Z,0.88
2023-01-10T23:20:27.076Z,0.95
2023-01-10T23:22:53.279Z,1.20
2023-01-10T23:25:19.518Z,0.85
2023-01-10T23:27:45.756Z,1.30
2023-01-10T23:30:11.961Z,1.40
2023-01-10T23:32:38.182Z,0.80
2023-01-10T23:35:04.400Z,1.27
2023-01-10T23:37:30.668Z,1.30
2023-01-10T23:39:56.886Z,1.10
2023-01-10T23:42:23.127Z,1.20
2023-01-10T23:44:49.447Z,1.00
2023-01-10T23:47:15.681Z,1.10
2023-01-10T23:49:41.847Z,1.10
2023-01-10T23:52:08.046Z,1.40
2023-01-10T23:54:34.215Z,0.85
2023-01-10T23:57:00.331Z,1.00
2023-01-10T23:59:26.513Z,1.75
